Time;durP1;ratioP1;P1;durP2;ratioP2;P2;SDS_P1;SDS_P2;PMS_P1;PMS_P2;Temp;Humidity;BMP_temperature;BMP_pressure;BME280_temperature;BME280_humidity;BME280_pressure;Samples;Min_cycle;Max_cycle;Signal;HPM_P1;HPM_P2
2023/05/14 00:01:17;;;;;;;67.00;27.67;;;;;;;;;;6274649;28;20189;-56
2023/05/14 00:04:18;;;;;;;139.70;42.50;;;;;;;;;;6244042;28;20194;-57
2023/05/14 00:07:19;;;;;;;71.17;31.83;;;;;;;;;;6252346;28;20190;-57
2023/05/14 00:10:20;;;;;;;61.73;26.30;;;;;;;;;;6250694;28;20190;-57
2023/05/14 00:13:21;;;;;;;51.60;25.10;;;;;;;;;;6243413;28;20362;-58
2023/05/14 00:16:22;;;;;;;45.83;22.57;;;;;;;;;;6264987;28;20346;-54
2023/05/14 00:19:23;;;;;;;66.90;26.40;;;;;;;;;;6261394;28;20217;-57
2023/05/14 00:22:24;;;;;;;56.83;23.70;;;;;;;;;;6258546;28;20205;-58
2023/05/14 00:25:25;;;;;;;53.13;21.33;;;;;;;;;;6243182;28;20201;-58
2023/05/14 00:28:26;;;;;;;43.97;20.53;;;;;;;;;;6275463;28;20719;-56
2023/05/14 00:31:27;;;;;;;60.93;25.63;;;;;;;;;;6263103;28;20204;-58
2023/05/14 00:34:28;;;;;;;59.27;24.53;;;;;;;;;;6259461;28;20211;-56
2023/05/14 00:37:30;;;;;;;52.30;24.03;;;;;;;;;;6267454;28;20704;-58
2023/05/14 00:40:31;;;;;;;98.23;31.37;;;;;;;;;;6258821;28;20248;-58
2023/05/14 00:43:32;;;;;;;47.33;21.10;;;;;;;;;;6272815;28;20186;-59
2023/05/14 00:46:33;;;;;;;47.13;21.30;;;;;;;;;;6255390;28;20207;-59
2023/05/14 00:49:34;;;;;;;56.27;23.43;;;;;;;;;;6243898;28;20664;-59
2023/05/14 00:52:36;;;;;;;43.87;21.77;;;;;;;;;;6266196;28;20285;-59
2023/05/14 00:55:38;;;;;;;56.27;21.73;;;;;;;;;;6277261;28;20186;-59
2023/05/14 00:58:39;;;;;;;61.80;23.90;;;;;;;;;;6259906;28;20230;-59
2023/05/14 01:01:40;;;;;;;77.40;31.03;;;;;;;;;;6256868;28;20229;-58
2023/05/14 01:04:41;;;;;;;111.20;35.47;;;;;;;;;;6248176;28;20194;-58
2023/05/14 01:07:55;;;;;;;50.20;22.97;;;;;;;;;;6257731;28;20183;-58
2023/05/14 01:11:20;;;;;;;59.60;24.77;;;;;;;;;;6271122;28;20187;-59
2023/05/14 01:14:23;;;;;;;57.90;25.47;;;;;;;;;;6259652;28;20202;-58
2023/05/14 01:17:28;;;;;;;103.53;34.53;;;;;;;;;;6253006;28;20193;-59
2023/05/14 01:20:29;;;;;;;64.13;27.17;;;;;;;;;;6269296;28;20214;-59
2023/05/14 01:23:30;;;;;;;67.77;27.80;;;;;;;;;;6263090;28;20193;-58
2023/05/14 01:26:31;;;;;;;69.73;27.47;;;;;;;;;;6259371;28;20194;-59
2023/05/14 01:29:33;;;;;;;54.07;23.00;;;;;;;;;;6252215;28;20201;-58
2023/05/14 01:32:35;;;;;;;40.83;19.37;;;;;;;;;;6277020;28;20194;-58
2023/05/14 01:35:36;;;;;;;51.10;23.73;;;;;;;;;;6256944;28;20205;-59
2023/05/14 01:38:38;;;;;;;52.97;22.53;;;;;;;;;;6255825;28;20653;-59
2023/05/14 01:41:39;;;;;;;44.60;20.50;;;;;;;;;;6261492;28;20204;-59
2023/05/14 01:44:41;;;;;;;41.73;20.70;;;;;;;;;;6250030;28;20225;-59
2023/05/14 01:47:42;;;;;;;55.10;24.43;;;;;;;;;;6260217;28;20185;-59
2023/05/14 01:50:43;;;;;;;60.70;25.07;;;;;;;;;;6253986;28;20220;-59
2023/05/14 01:53:44;;;;;;;50.13;24.10;;;;;;;;;;6255877;28;20909;-59
2023/05/14 01:56:45;;;;;;;73.20;26.63;;;;;;;;;;6256484;28;20185;-58
2023/05/14 01:59:46;;;;;;;59.47;26.33;;;;;;;;;;6244413;28;20209;-59
2023/05/14 02:02:47;;;;;;;72.87;28.93;;;;;;;;;;6251774;28;20190;-58
2023/05/14 02:05:48;;;;;;;74.70;32.50;;;;;;;;;;6251689;28;20190;-59
2023/05/14 02:08:49;;;;;;;86.67;32.73;;;;;;;;;;6256365;28;20193;-58
2023/05/14 02:11:50;;;;;;;151.67;43.50;;;;;;;;;;6255784;28;20201;-58
2023/05/14 02:14:51;;;;;;;184.83;49.30;;;;;;;;;;6262399;28;20257;-59
2023/05/14 02:17:52;;;;;;;159.77;47.10;;;;;;;;;;6265708;28;20193;-58
2023/05/14 02:20:53;;;;;;;142.37;44.87;;;;;;;;;;6241299;28;20220;-59
2023/05/14 02:23:55;;;;;;;139.63;46.33;;;;;;;;;;6251758;28;20280;-59
2023/05/14 02:26:58;;;;;;;79.70;36.97;;;;;;;;;;6248667;28;20201;-59
2023/05/14 02:30:00;;;;;;;112.40;40.97;;;;;;;;;;6255207;28;20198;-58
2023/05/14 02:33:01;;;;;;;112.23;44.63;;;;;;;;;;6254014;28;20197;-59
2023/05/14 02:36:02;;;;;;;149.10;44.43;;;;;;;;;;6252282;28;20190;-59
2023/05/14 02:39:03;;;;;;;126.67;41.00;;;;;;;;;;6250905;28;20252;-57
2023/05/14 02:42:05;;;;;;;164.27;51.67;;;;;;;;;;6247978;28;20272;-58
2023/05/14 02:45:06;;;;;;;65.50;38.17;;;;;;;;;;6256770;28;20205;-59
2023/05/14 02:48:07;;;;;;;99.97;41.07;;;;;;;;;;6250082;28;20195;-59
2023/05/14 02:51:08;;;;;;;165.03;51.50;;;;;;;;;;6254084;28;20197;-58
2023/05/14 02:54:09;;;;;;;115.37;44.97;;;;;;;;;;6258577;28;20194;-58
2023/05/14 02:57:10;;;;;;;196.63;54.83;;;;;;;;;;6254333;28;20189;-58
2023/05/14 03:00:12;;;;;;;137.37;47.00;;;;;;;;;;6267622;28;20283;-58
2023/05/14 03:03:13;;;;;;;106.07;43.23;;;;;;;;;;6265377;28;20190;-59
2023/05/14 03:06:14;;;;;;;136.53;47.27;;;;;;;;;;6259541;28;20690;-59
2023/05/14 03:09:15;;;;;;;117.90;45.17;;;;;;;;;;6259462;28;20193;-59
2023/05/14 03:12:16;;;;;;;139.43;48.03;;;;;;;;;;6258408;28;20193;-58
2023/05/14 03:15:18;;;;;;;205.07;57.13;;;;;;;;;;6261521;28;20194;-59
2023/05/14 03:18:19;;;;;;;103.13;40.73;;;;;;;;;;6257511;28;20246;-58
2023/05/14 03:21:20;;;;;;;136.63;45.07;;;;;;;;;;6261398;28;20214;-59
2023/05/14 03:24:21;;;;;;;169.40;53.53;;;;;;;;;;6264628;28;20220;-59
2023/05/14 03:27:22;;;;;;;174.73;50.70;;;;;;;;;;6265402;28;20197;-59
2023/05/14 03:30:23;;;;;;;100.57;36.00;;;;;;;;;;6257252;28;20195;-59
2023/05/14 03:33:24;;;;;;;112.27;44.20;;;;;;;;;;6259213;28;20194;-59
2023/05/14 03:36:25;;;;;;;93.30;35.77;;;;;;;;;;6252883;28;20236;-59
2023/05/14 03:39:26;;;;;;;116.53;39.77;;;;;;;;;;6251800;28;20242;-58
2023/05/14 03:42:27;;;;;;;160.70;52.07;;;;;;;;;;6252640;28;20208;-58
2023/05/14 03:45:29;;;;;;;83.10;35.37;;;;;;;;;;6254924;28;20205;-58
2023/05/14 03:48:30;;;;;;;116.40;41.47;;;;;;;;;;6269179;28;20239;-58
2023/05/14 03:51:31;;;;;;;100.77;38.67;;;;;;;;;;6258971;28;20243;-57
2023/05/14 03:54:32;;;;;;;80.87;35.53;;;;;;;;;;6250875;28;20289;-58
2023/05/14 03:57:33;;;;;;;139.83;46.67;;;;;;;;;;6251036;28;20198;-59
2023/05/14 04:00:34;;;;;;;130.40;43.03;;;;;;;;;;6271734;28;20394;-59
2023/05/14 04:03:35;;;;;;;106.00;41.13;;;;;;;;;;6249431;28;20205;-59
2023/05/14 04:06:36;;;;;;;98.80;38.27;;;;;;;;;;6272568;28;20186;-59
2023/05/14 04:09:37;;;;;;;125.63;43.20;;;;;;;;;;6262419;28;20194;-59
2023/05/14 04:12:38;;;;;;;100.00;34.07;;;;;;;;;;6266641;28;20197;-59
2023/05/14 04:15:39;;;;;;;82.10;34.20;;;;;;;;;;6255466;28;20285;-59
2023/05/14 04:18:40;;;;;;;94.00;35.53;;;;;;;;;;6256546;28;20255;-59
2023/05/14 04:21:42;;;;;;;89.70;33.73;;;;;;;;;;6254574;28;20196;-58
2023/05/14 04:24:43;;;;;;;108.90;41.27;;;;;;;;;;6260616;28;20228;-58
2023/05/14 04:27:44;;;;;;;88.30;37.17;;;;;;;;;;6253633;28;20305;-59
2023/05/14 04:30:45;;;;;;;72.77;30.97;;;;;;;;;;6254312;28;20201;-59
2023/05/14 04:33:46;;;;;;;91.27;35.93;;;;;;;;;;6286325;28;20205;-59
2023/05/14 04:36:47;;;;;;;75.37;32.43;;;;;;;;;;6269481;28;20198;-59
2023/05/14 04:39:48;;;;;;;116.87;44.60;;;;;;;;;;6264187;28;20240;-59
2023/05/14 04:42:49;;;;;;;71.30;32.40;;;;;;;;;;6260055;28;20196;-59
2023/05/14 04:45:51;;;;;;;65.63;28.00;;;;;;;;;;6243081;28;20198;-59
2023/05/14 04:48:52;;;;;;;61.90;25.40;;;;;;;;;;6250456;28;20203;-59
2023/05/14 04:51:53;;;;;;;71.57;28.57;;;;;;;;;;6258791;28;20201;-58
2023/05/14 04:54:55;;;;;;;116.37;42.13;;;;;;;;;;6247167;28;20201;-66
2023/05/14 04:57:56;;;;;;;60.67;26.90;;;;;;;;;;6250815;28;20194;-59
2023/05/14 05:00:58;;;;;;;94.90;34.20;;;;;;;;;;6253994;28;20193;-59
2023/05/14 05:03:59;;;;;;;104.50;34.00;;;;;;;;;;6259944;28;20190;-59
2023/05/14 05:07:00;;;;;;;85.30;32.43;;;;;;;;;;6250541;28;20224;-60
2023/05/14 05:10:02;;;;;;;41.43;22.93;;;;;;;;;;6259870;28;20185;-59
2023/05/14 05:13:03;;;;;;;86.17;31.20;;;;;;;;;;6270873;28;20189;-59
2023/05/14 05:16:04;;;;;;;52.47;25.37;;;;;;;;;;6253742;28;20196;-59
2023/05/14 05:19:05;;;;;;;89.90;35.30;;;;;;;;;;6255793;28;20266;-59
2023/05/14 05:22:06;;;;;;;69.57;27.67;;;;;;;;;;6245097;28;20280;-59
2023/05/14 05:25:07;;;;;;;41.13;23.80;;;;;;;;;;6251161;28;20225;-60
2023/05/14 05:28:08;;;;;;;90.77;32.27;;;;;;;;;;6254630;28;20276;-60
2023/05/14 05:31:09;;;;;;;72.93;30.23;;;;;;;;;;6256276;28;20193;-60
2023/05/14 05:34:10;;;;;;;63.37;25.80;;;;;;;;;;6254964;28;20185;-59
2023/05/14 05:37:13;;;;;;;38.90;18.83;;;;;;;;;;6248085;28;20233;-60
2023/05/14 05:40:14;;;;;;;58.83;24.77;;;;;;;;;;6251394;28;20217;-60
2023/05/14 05:43:15;;;;;;;38.60;19.57;;;;;;;;;;6254996;28;20201;-58
2023/05/14 05:46:16;;;;;;;33.37;24.47;;;;;;;;;;6248182;28;20190;-59
2023/05/14 05:49:17;;;;;;;40.27;26.80;;;;;;;;;;6248523;28;20201;-59
2023/05/14 05:52:19;;;;;;;67.23;30.70;;;;;;;;;;6266333;28;20196;-58
2023/05/14 05:55:20;;;;;;;81.07;33.10;;;;;;;;;;6255236;28;20193;-58
2023/05/14 05:58:21;;;;;;;52.40;26.80;;;;;;;;;;6244046;28;20221;-58
2023/05/14 06:01:22;;;;;;;91.77;37.30;;;;;;;;;;6266695;28;20190;-58
2023/05/14 06:04:23;;;;;;;58.37;28.00;;;;;;;;;;6240742;28;20193;-58
2023/05/14 06:07:24;;;;;;;85.40;32.70;;;;;;;;;;6256026;28;20204;-57
2023/05/14 06:10:25;;;;;;;67.40;28.47;;;;;;;;;;6256007;28;20208;-58
2023/05/14 06:13:26;;;;;;;56.63;24.57;;;;;;;;;;6260079;28;20201;-58
2023/05/14 06:16:27;;;;;;;63.93;29.17;;;;;;;;;;6248027;28;20218;-57
2023/05/14 06:19:28;;;;;;;57.57;26.20;;;;;;;;;;6258833;28;20225;-58
2023/05/14 06:22:29;;;;;;;35.03;18.40;;;;;;;;;;6260161;28;20226;-59
2023/05/14 06:25:30;;;;;;;62.93;31.00;;;;;;;;;;6247655;28;20196;-59
2023/05/14 06:28:31;;;;;;;47.10;23.00;;;;;;;;;;6252928;28;20201;-57
2023/05/14 06:31:32;;;;;;;47.63;25.17;;;;;;;;;;6250359;28;20190;-56
2023/05/14 06:34:33;;;;;;;50.93;24.83;;;;;;;;;;6248892;28;20210;-57
2023/05/14 06:37:34;;;;;;;87.03;31.63;;;;;;;;;;6255196;28;20618;-58
2023/05/14 06:40:35;;;;;;;104.17;37.73;;;;;;;;;;6262274;28;20217;-58
2023/05/14 06:43:37;;;;;;;53.87;25.00;;;;;;;;;;6263974;28;20196;-59
2023/05/14 06:46:38;;;;;;;77.47;32.73;;;;;;;;;;6245981;28;20196;-60
2023/05/14 06:49:40;;;;;;;133.47;42.30;;;;;;;;;;6259010;28;20199;-58
2023/05/14 06:52:42;;;;;;;106.20;37.30;;;;;;;;;;6260953;28;20194;-58
2023/05/14 06:55:43;;;;;;;111.17;37.27;;;;;;;;;;6249573;28;20273;-59
2023/05/14 06:58:44;;;;;;;64.23;29.07;;;;;;;;;;6257687;28;20657;-59
2023/05/14 07:01:45;;;;;;;83.00;31.20;;;;;;;;;;6254648;28;20276;-57
2023/05/14 07:04:47;;;;;;;105.93;36.30;;;;;;;;;;6252037;28;20553;-58
2023/05/14 07:07:48;;;;;;;75.03;27.80;;;;;;;;;;6241058;28;20194;-59
2023/05/14 07:10:49;;;;;;;114.80;37.77;;;;;;;;;;6256016;28;20197;-58
2023/05/14 07:13:50;;;;;;;66.03;26.90;;;;;;;;;;6257419;28;20198;-58
2023/05/14 07:16:51;;;;;;;87.17;32.40;;;;;;;;;;6258552;28;20218;-59
2023/05/14 07:19:54;;;;;;;75.37;34.07;;;;;;;;;;6258139;28;20248;-59
2023/05/14 07:22:55;;;;;;;55.83;27.57;;;;;;;;;;6256396;28;20201;-59
2023/05/14 07:25:56;;;;;;;74.57;31.20;;;;;;;;;;6260450;28;20182;-59
2023/05/14 07:28:57;;;;;;;58.83;29.07;;;;;;;;;;6268062;28;20197;-63
2023/05/14 07:31:58;;;;;;;43.73;20.63;;;;;;;;;;6270128;28;20265;-63
2023/05/14 07:35:00;;;;;;;34.23;17.93;;;;;;;;;;6273613;28;20284;-62
2023/05/14 07:38:02;;;;;;;33.77;17.93;;;;;;;;;;6265813;28;20238;-62
2023/05/14 07:41:03;;;;;;;30.47;15.70;;;;;;;;;;6242889;28;20199;-61
2023/05/14 07:44:04;;;;;;;30.23;15.00;;;;;;;;;;6243696;28;20202;-61
2023/05/14 07:47:07;;;;;;;26.60;13.80;;;;;;;;;;6255764;28;20614;-63
2023/05/14 07:50:08;;;;;;;27.90;14.17;;;;;;;;;;6281485;28;20185;-62
2023/05/14 07:53:09;;;;;;;29.37;14.00;;;;;;;;;;6244544;28;20204;-61
2023/05/14 07:56:10;;;;;;;19.57;11.00;;;;;;;;;;6263551;28;20197;-62
2023/05/14 07:59:11;;;;;;;14.67;9.27;;;;;;;;;;6254886;28;20311;-62
2023/05/14 08:02:14;;;;;;;11.07;8.10;;;;;;;;;;6277897;28;20186;-63
2023/05/14 08:05:15;;;;;;;19.67;10.27;;;;;;;;;;6251213;28;20195;-62
2023/05/14 08:08:16;;;;;;;17.83;10.30;;;;;;;;;;6248334;28;20190;-62
2023/05/14 08:11:17;;;;;;;10.63;8.07;;;;;;;;;;6258349;28;20208;-63
2023/05/14 08:14:20;;;;;;;23.87;10.73;;;;;;;;;;6253682;28;20247;-63
2023/05/14 08:17:21;;;;;;;25.00;11.43;;;;;;;;;;6255251;28;20190;-63
2023/05/14 08:20:22;;;;;;;13.27;8.57;;;;;;;;;;6247936;28;20311;-63
2023/05/14 08:23:23;;;;;;;17.10;8.87;;;;;;;;;;6269528;28;20217;-63
2023/05/14 08:26:24;;;;;;;16.53;10.47;;;;;;;;;;6285929;28;20234;-63
2023/05/14 08:29:26;;;;;;;12.17;8.83;;;;;;;;;;6274193;28;20435;-62
2023/05/14 08:32:27;;;;;;;11.67;6.60;;;;;;;;;;6266535;28;20232;-62
2023/05/14 08:35:28;;;;;;;10.50;7.90;;;;;;;;;;6255026;28;20198;-61
2023/05/14 08:38:29;;;;;;;12.20;7.93;;;;;;;;;;6280235;28;20238;-62
2023/05/14 08:41:30;;;;;;;8.70;5.43;;;;;;;;;;6250363;28;20193;-62
2023/05/14 08:44:35;;;;;;;11.50;6.97;;;;;;;;;;6240467;28;20494;-63
2023/05/14 08:47:36;;;;;;;12.57;6.93;;;;;;;;;;6267523;28;20190;-62
2023/05/14 08:50:37;;;;;;;15.33;8.10;;;;;;;;;;6246589;28;20289;-62
2023/05/14 08:53:39;;;;;;;10.67;6.70;;;;;;;;;;6243956;28;20193;-62
2023/05/14 08:56:41;;;;;;;10.13;6.93;;;;;;;;;;6244760;28;20234;-61
2023/05/14 08:59:42;;;;;;;12.00;6.53;;;;;;;;;;6257608;28;20325;-63
2023/05/14 09:02:44;;;;;;;6.80;5.37;;;;;;;;;;6243820;28;20193;-63
2023/05/14 09:05:45;;;;;;;8.20;5.93;;;;;;;;;;6259059;28;20201;-62
2023/05/14 09:08:46;;;;;;;11.40;6.40;;;;;;;;;;6250545;28;20277;-62
2023/05/14 09:11:48;;;;;;;7.40;6.07;;;;;;;;;;6269870;28;20189;-62
2023/05/14 09:14:50;;;;;;;9.00;6.33;;;;;;;;;;6279884;28;20191;-62
2023/05/14 09:17:51;;;;;;;9.10;6.23;;;;;;;;;;6285862;28;20228;-62
2023/05/14 09:20:53;;;;;;;9.63;6.27;;;;;;;;;;6247713;28;20221;-62
2023/05/14 09:23:56;;;;;;;6.40;5.00;;;;;;;;;;6265008;28;20197;-62
2023/05/14 09:26:58;;;;;;;8.70;5.77;;;;;;;;;;6257168;28;20191;-62
2023/05/14 09:30:06;;;;;;;11.03;5.77;;;;;;;;;;6264469;28;20254;-62
2023/05/14 09:33:09;;;;;;;5.67;5.10;;;;;;;;;;6242426;28;20286;-62
2023/05/14 09:36:10;;;;;;;9.17;5.33;;;;;;;;;;6244194;28;20198;-63
2023/05/14 09:39:11;;;;;;;7.07;5.70;;;;;;;;;;6255794;28;20252;-61
2023/05/14 09:42:12;;;;;;;4.97;4.57;;;;;;;;;;6271587;28;20221;-61
2023/05/14 09:45:13;;;;;;;6.43;4.90;;;;;;;;;;6254854;28;20190;-60
2023/05/14 09:48:14;;;;;;;12.37;6.30;;;;;;;;;;6261756;28;20281;-60
2023/05/14 09:51:19;;;;;;;7.77;4.50;;;;;;;;;;6242183;28;20212;-61
2023/05/14 09:54:20;;;;;;;5.43;4.50;;;;;;;;;;6256407;28;20186;-60
2023/05/14 09:57:22;;;;;;;4.93;3.83;;;;;;;;;;6253390;28;20198;-61
2023/05/14 10:00:23;;;;;;;5.97;4.30;;;;;;;;;;6268848;28;20206;-62
2023/05/14 10:03:26;;;;;;;8.37;4.50;;;;;;;;;;6253787;28;20202;-63
2023/05/14 10:06:30;;;;;;;5.27;4.40;;;;;;;;;;6273095;28;20186;-63
2023/05/14 10:09:31;;;;;;;6.67;4.67;;;;;;;;;;6257802;28;20646;-63
2023/05/14 10:12:33;;;;;;;7.63;5.20;;;;;;;;;;6277337;28;20185;-61
2023/05/14 10:15:37;;;;;;;6.47;4.63;;;;;;;;;;6266723;28;20194;-61
2023/05/14 10:18:40;;;;;;;13.63;5.77;;;;;;;;;;6282399;28;20275;-60
2023/05/14 10:21:44;;;;;;;8.57;4.10;;;;;;;;;;6269334;28;20193;-61
2023/05/14 10:24:46;;;;;;;4.17;3.73;;;;;;;;;;6262650;28;20186;-60
2023/05/14 10:27:47;;;;;;;6.13;3.97;;;;;;;;;;6258155;28;20187;-60
2023/05/14 10:30:49;;;;;;;3.60;3.30;;;;;;;;;;6257384;28;20194;-61
2023/05/14 10:33:51;;;;;;;4.73;3.53;;;;;;;;;;6275253;28;20221;-61
2023/05/14 10:36:52;;;;;;;4.77;3.73;;;;;;;;;;6258448;28;20263;-61
2023/05/14 10:39:54;;;;;;;4.73;3.80;;;;;;;;;;6256215;28;20249;-61
2023/05/14 10:42:58;;;;;;;6.90;4.03;;;;;;;;;;6266983;28;20222;-61
2023/05/14 10:46:00;;;;;;;4.53;4.13;;;;;;;;;;6268688;28;20201;-61
2023/05/14 10:49:01;;;;;;;4.80;3.63;;;;;;;;;;6284445;28;20285;-61
2023/05/14 10:52:02;;;;;;;4.03;3.63;;;;;;;;;;6264131;28;20247;-61
2023/05/14 10:55:06;;;;;;;3.63;2.77;;;;;;;;;;6256845;28;20200;-62
2023/05/14 10:58:08;;;;;;;4.27;3.57;;;;;;;;;;6246001;28;20241;-61
2023/05/14 11:01:10;;;;;;;3.70;3.27;;;;;;;;;;6268389;28;20206;-61
2023/05/14 11:04:18;;;;;;;4.13;3.73;;;;;;;;;;6269020;28;20270;-61
2023/05/14 11:07:23;;;;;;;4.40;4.00;;;;;;;;;;6257945;28;20186;-61
2023/05/14 11:10:24;;;;;;;5.23;3.13;;;;;;;;;;6271139;28;20251;-62
2023/05/14 11:13:26;;;;;;;3.93;2.63;;;;;;;;;;6265924;28;20201;-61
2023/05/14 11:16:29;;;;;;;2.50;2.30;;;;;;;;;;6263665;28;20193;-61
2023/05/14 11:19:30;;;;;;;2.13;2.00;;;;;;;;;;6264588;28;20214;-62
2023/05/14 11:22:31;;;;;;;2.97;2.77;;;;;;;;;;6258749;28;20192;-62
2023/05/14 11:25:32;;;;;;;2.80;2.60;;;;;;;;;;6262139;28;20191;-61
2023/05/14 11:28:33;;;;;;;2.50;2.30;;;;;;;;;;6252158;28;20205;-62
2023/05/14 11:31:35;;;;;;;3.17;2.87;;;;;;;;;;6253548;28;20182;-62
2023/05/14 11:34:36;;;;;;;3.93;3.23;;;;;;;;;;6261541;28;20194;-62
2023/05/14 11:37:37;;;;;;;3.77;2.70;;;;;;;;;;6249204;28;20242;-62
2023/05/14 11:40:38;;;;;;;3.17;2.87;;;;;;;;;;6267241;28;20239;-62
2023/05/14 11:43:39;;;;;;;4.13;2.47;;;;;;;;;;6266253;28;20185;-62
2023/05/14 11:46:40;;;;;;;2.50;2.30;;;;;;;;;;6256037;28;20189;-62
2023/05/14 11:49:41;;;;;;;5.90;3.47;;;;;;;;;;6258568;28;20212;-63
2023/05/14 11:52:42;;;;;;;4.10;3.40;;;;;;;;;;6272419;28;20202;-62
2023/05/14 11:55:44;;;;;;;6.83;2.70;;;;;;;;;;6257625;28;20197;-62
2023/05/14 11:58:49;;;;;;;5.27;3.30;;;;;;;;;;6260933;28;20217;-61
2023/05/14 12:01:53;;;;;;;3.90;2.90;;;;;;;;;;6274578;28;20182;-61
2023/05/14 12:04:54;;;;;;;3.90;2.70;;;;;;;;;;6263336;28;20198;-62
2023/05/14 12:07:55;;;;;;;4.90;2.83;;;;;;;;;;6256166;28;20193;-63
2023/05/14 12:10:57;;;;;;;3.07;2.43;;;;;;;;;;6258114;28;20239;-62
2023/05/14 12:13:59;;;;;;;4.87;2.50;;;;;;;;;;6256547;28;20274;-62
2023/05/14 12:17:01;;;;;;;2.23;2.10;;;;;;;;;;6287832;28;20189;-63
2023/05/14 12:20:03;;;;;;;3.70;2.67;;;;;;;;;;6273096;28;20217;-62
2023/05/14 12:23:04;;;;;;;5.37;2.40;;;;;;;;;;6251271;28;20189;-63
2023/05/14 12:26:06;;;;;;;3.37;2.30;;;;;;;;;;6261184;28;20324;-62
2023/05/14 12:29:07;;;;;;;2.30;2.10;;;;;;;;;;6262774;28;20214;-63
2023/05/14 12:32:11;;;;;;;2.43;2.20;;;;;;;;;;6258686;28;20280;-63
2023/05/14 12:35:12;;;;;;;7.07;5.33;;;;;;;;;;6266288;28;20198;-62
2023/05/14 12:38:13;;;;;;;2.93;2.63;;;;;;;;;;6252004;28;20256;-63
2023/05/14 12:41:14;;;;;;;3.27;2.00;;;;;;;;;;6257447;28;20394;-62
2023/05/14 12:44:15;;;;;;;2.00;1.80;;;;;;;;;;6249378;28;20194;-59
2023/05/14 12:47:16;;;;;;;2.03;1.60;;;;;;;;;;6268419;28;20192;-60
2023/05/14 12:50:17;;;;;;;2.73;1.27;;;;;;;;;;6252838;28;20201;-61
2023/05/14 12:53:18;;;;;;;2.83;1.63;;;;;;;;;;6246834;28;20197;-62
2023/05/14 12:56:20;;;;;;;1.33;1.23;;;;;;;;;;6251727;28;20190;-61
2023/05/14 12:59:21;;;;;;;2.37;1.20;;;;;;;;;;6279502;28;20347;-61
2023/05/14 13:02:22;;;;;;;3.40;1.20;;;;;;;;;;6263586;28;20189;-61
2023/05/14 13:05:23;;;;;;;1.47;1.37;;;;;;;;;;6265345;28;20205;-62
2023/05/14 13:08:25;;;;;;;2.90;1.43;;;;;;;;;;6271474;28;20201;-65
2023/05/14 13:11:28;;;;;;;1.97;1.40;;;;;;;;;;6259075;28;20186;-64
2023/05/14 13:14:29;;;;;;;4.00;1.43;;;;;;;;;;6262903;28;20186;-64
2023/05/14 13:17:30;;;;;;;2.00;1.70;;;;;;;;;;6253839;28;20191;-64
2023/05/14 13:20:32;;;;;;;1.53;1.17;;;;;;;;;;6248921;28;20221;-64
2023/05/14 13:23:33;;;;;;;1.57;1.20;;;;;;;;;;6253786;28;20190;-65
2023/05/14 13:26:34;;;;;;;2.23;1.27;;;;;;;;;;6262020;28;20645;-67
2023/05/14 13:29:36;;;;;;;1.27;1.00;;;;;;;;;;6254408;28;20204;-62
2023/05/14 13:32:37;;;;;;;1.20;1.10;;;;;;;;;;6252820;28;20200;-63
2023/05/14 13:35:38;;;;;;;1.20;1.10;;;;;;;;;;6248902;28;20198;-63
2023/05/14 13:38:39;;;;;;;1.10;1.00;;;;;;;;;;6254742;28;20238;-62
2023/05/14 13:41:40;;;;;;;1.20;1.10;;;;;;;;;;6272581;28;20192;-63
2023/05/14 13:44:41;;;;;;;1.80;0.90;;;;;;;;;;6245239;28;20237;-61
2023/05/14 13:47:42;;;;;;;1.20;0.93;;;;;;;;;;6247442;28;20667;-60
2023/05/14 13:50:43;;;;;;;1.20;1.00;;;;;;;;;;6250627;28;20216;-64
2023/05/14 13:53:44;;;;;;;1.17;0.90;;;;;;;;;;6248570;28;20197;-61
2023/05/14 13:56:45;;;;;;;1.63;0.90;;;;;;;;;;6255856;28;20244;-61
2023/05/14 13:59:46;;;;;;;2.40;0.90;;;;;;;;;;6253320;28;20218;-61
2023/05/14 14:02:47;;;;;;;1.00;0.90;;;;;;;;;;6258665;28;20213;-61
2023/05/14 14:05:49;;;;;;;1.90;1.17;;;;;;;;;;6258208;28;20252;-61
2023/05/14 14:08:50;;;;;;;2.53;1.50;;;;;;;;;;6269318;28;20189;-61
2023/05/14 14:11:51;;;;;;;1.00;0.90;;;;;;;;;;6240987;28;20319;-61
2023/05/14 14:14:52;;;;;;;2.77;1.43;;;;;;;;;;6270141;28;20197;-61
2023/05/14 14:17:53;;;;;;;1.60;1.50;;;;;;;;;;6246283;28;20198;-61
2023/05/14 14:20:54;;;;;;;1.93;1.20;;;;;;;;;;6258433;28;20245;-60
2023/05/14 14:23:55;;;;;;;1.37;1.13;;;;;;;;;;6270932;28;20202;-60
2023/05/14 14:26:56;;;;;;;1.73;1.17;;;;;;;;;;6253907;28;20247;-60
2023/05/14 14:29:57;;;;;;;1.77;1.40;;;;;;;;;;6251196;28;20205;-60
2023/05/14 14:33:00;;;;;;;2.37;1.20;;;;;;;;;;6252464;28;20193;-60
2023/05/14 14:36:01;;;;;;;0.80;0.80;;;;;;;;;;6255874;28;20190;-61
2023/05/14 14:39:02;;;;;;;3.10;1.50;;;;;;;;;;6276193;28;20234;-61
2023/05/14 14:42:03;;;;;;;1.83;1.30;;;;;;;;;;6258796;28;20247;-59
2023/05/14 14:45:05;;;;;;;3.17;1.83;;;;;;;;;;6270648;28;20282;-60
2023/05/14 14:48:25;;;;;;;1.70;1.60;;;;;;;;;;6264668;28;20244;-61
2023/05/14 14:51:27;;;;;;;3.07;2.20;;;;;;;;;;6259331;28;20194;-61
2023/05/14 14:54:28;;;;;;;3.93;2.30;;;;;;;;;;6255624;28;20217;-61
2023/05/14 14:57:29;;;;;;;5.03;2.13;;;;;;;;;;6255677;28;20213;-61
2023/05/14 15:00:30;;;;;;;3.33;1.57;;;;;;;;;;6257975;28;20223;-61
2023/05/14 15:03:31;;;;;;;7.80;2.20;;;;;;;;;;6259657;28;20197;-61
2023/05/14 15:06:32;;;;;;;2.57;1.73;;;;;;;;;;6264802;28;20644;-61
2023/05/14 15:09:33;;;;;;;20.10;13.20;;;;;;;;;;6264492;28;20201;-60
2023/05/14 15:12:34;;;;;;;5.50;3.80;;;;;;;;;;6255454;28;20204;-61
2023/05/14 15:15:36;;;;;;;6.83;3.40;;;;;;;;;;6271177;28;20195;-60
2023/05/14 15:18:37;;;;;;;4.37;2.30;;;;;;;;;;6273833;28;20281;-61
2023/05/14 15:21:38;;;;;;;2.43;1.83;;;;;;;;;;6263207;28;20326;-60
2023/05/14 15:24:39;;;;;;;2.27;1.93;;;;;;;;;;6258391;28;20194;-60
2023/05/14 15:27:40;;;;;;;3.90;2.10;;;;;;;;;;6254193;28;20225;-61
2023/05/14 15:30:41;;;;;;;2.50;1.87;;;;;;;;;;6250322;28;20189;-61
2023/05/14 15:33:42;;;;;;;3.60;2.80;;;;;;;;;;6248145;28;20202;-60
2023/05/14 15:36:43;;;;;;;3.70;2.17;;;;;;;;;;6259263;28;20733;-60
2023/05/14 15:39:45;;;;;;;2.07;1.90;;;;;;;;;;6257308;28;20217;-60
2023/05/14 15:42:46;;;;;;;2.23;1.70;;;;;;;;;;6255032;28;20194;-60
2023/05/14 15:45:48;;;;;;;2.27;1.83;;;;;;;;;;6272173;28;20192;-61
2023/05/14 15:48:49;;;;;;;3.37;2.40;;;;;;;;;;6261013;28;20203;-64
2023/05/14 15:51:50;;;;;;;2.20;1.80;;;;;;;;;;6266930;28;20220;-62
2023/05/14 15:54:51;;;;;;;3.20;2.30;;;;;;;;;;6260470;28;20198;-62
2023/05/14 15:57:52;;;;;;;3.83;2.83;;;;;;;;;;6262526;28;20269;-62
2023/05/14 16:00:53;;;;;;;3.90;2.13;;;;;;;;;;6259960;28;20233;-59
2023/05/14 16:03:54;;;;;;;4.77;2.93;;;;;;;;;;6250102;28;20190;-60
2023/05/14 16:07:00;;;;;;;6.57;4.60;;;;;;;;;;6247225;28;20225;-60
2023/05/14 16:10:01;;;;;;;4.13;3.73;;;;;;;;;;6281595;28;20561;-60
2023/05/14 16:13:02;;;;;;;7.70;6.53;;;;;;;;;;6242218;28;20202;-61
2023/05/14 16:16:03;;;;;;;7.97;6.47;;;;;;;;;;6250463;28;20273;-61
2023/05/14 16:19:04;;;;;;;6.97;4.63;;;;;;;;;;6268540;28;20213;-61
2023/05/14 16:22:06;;;;;;;5.67;4.77;;;;;;;;;;6258276;28;20285;-62
2023/05/14 16:25:21;;;;;;;8.37;5.07;;;;;;;;;;6254046;28;20186;-66
2023/05/14 16:28:22;;;;;;;7.57;4.30;;;;;;;;;;6277038;28;20187;-64
2023/05/14 16:31:23;;;;;;;5.70;4.40;;;;;;;;;;6252828;28;20194;-64
2023/05/14 16:34:24;;;;;;;6.03;4.03;;;;;;;;;;6262324;28;20197;-66
2023/05/14 16:37:25;;;;;;;3.70;3.40;;;;;;;;;;6255964;28;20244;-65
2023/05/14 16:40:26;;;;;;;6.37;4.43;;;;;;;;;;6246625;28;20313;-66
2023/05/14 16:43:27;;;;;;;5.50;4.37;;;;;;;;;;6263337;28;20178;-64
2023/05/14 16:46:29;;;;;;;4.60;3.60;;;;;;;;;;6253937;28;20205;-66
2023/05/14 16:49:30;;;;;;;4.83;3.40;;;;;;;;;;6263461;28;20202;-66
2023/05/14 16:52:31;;;;;;;4.27;3.30;;;;;;;;;;6251509;28;20677;-64
2023/05/14 16:55:32;;;;;;;3.77;2.90;;;;;;;;;;6255400;28;20190;-64
2023/05/14 16:58:34;;;;;;;4.00;3.53;;;;;;;;;;6266006;28;20228;-65
2023/05/14 17:01:35;;;;;;;4.10;3.70;;;;;;;;;;6248757;28;20189;-65
2023/05/14 17:04:39;;;;;;;9.63;3.27;;;;;;;;;;6261080;28;20197;-67
2023/05/14 17:07:40;;;;;;;5.60;3.23;;;;;;;;;;6261187;28;20197;-63
2023/05/14 17:10:41;;;;;;;4.43;2.80;;;;;;;;;;6254434;28;20217;-61
2023/05/14 17:13:42;;;;;;;5.83;3.67;;;;;;;;;;6254116;28;20208;-61
2023/05/14 17:16:43;;;;;;;5.90;3.87;;;;;;;;;;6257873;28;20292;-62
2023/05/14 17:19:45;;;;;;;8.13;4.30;;;;;;;;;;6257533;28;20220;-61
2023/05/14 17:22:46;;;;;;;5.30;3.40;;;;;;;;;;6259631;28;20221;-62
2023/05/14 17:25:47;;;;;;;3.50;2.93;;;;;;;;;;6266636;28;20182;-62
2023/05/14 17:28:48;;;;;;;3.57;2.50;;;;;;;;;;6269374;28;20209;-67
2023/05/14 17:31:49;;;;;;;4.23;2.27;;;;;;;;;;6262448;28;20236;-67
2023/05/14 17:34:50;;;;;;;6.47;3.23;;;;;;;;;;6235220;28;20193;-62
2023/05/14 17:37:51;;;;;;;4.10;3.20;;;;;;;;;;6255076;28;20249;-63
2023/05/14 17:40:54;;;;;;;2.60;2.40;;;;;;;;;;6228016;28;20229;-63
2023/05/14 17:43:55;;;;;;;3.20;2.70;;;;;;;;;;6252316;28;20247;-63
2023/05/14 17:46:56;;;;;;;3.87;2.77;;;;;;;;;;6253191;28;20198;-62
2023/05/14 17:49:57;;;;;;;6.50;3.27;;;;;;;;;;6268403;28;20293;-62